createdAt,value
2022-08-27T00:00:42.589Z,347.50
2022-08-27T00:01:42.612Z,314.40
2022-08-27T00:02:42.558Z,323.60
2022-08-27T00:03:42.527Z,334.40
2022-08-27T00:04:42.515Z,335.50
2022-08-27T00:05:42.512Z,372.40
2022-08-27T00:06:42.567Z,379.60
2022-08-27T00:07:42.483Z,390.10
2022-08-27T00:08:42.468Z,379.60
2022-08-27T00:09:42.458Z,388.10
2022-08-27T00:10:42.444Z,380.70
2022-08-27T00:11:42.490Z,362.50
2022-08-27T00:12:42.430Z,361.10
2022-08-27T00:13:42.418Z,362.40
2022-08-27T00:14:42.404Z,355.20
2022-08-27T00:15:42.388Z,355.20
2022-08-27T00:16:42.476Z,346.10
2022-08-27T00:17:42.399Z,337.70
2022-08-27T00:18:42.359Z,327.70
2022-08-27T00:19:42.366Z,320.30
2022-08-27T00:20:42.346Z,315.60
2022-08-27T00:21:42.368Z,301.70
2022-08-27T00:22:42.312Z,295.70
2022-08-27T00:23:42.305Z,284.20
2022-08-27T00:24:49.151Z,282.40
2022-08-27T00:25:43.272Z,272.10
2022-08-27T00:26:43.424Z,269.80
2022-08-27T00:27:42.255Z,269.00
2022-08-27T00:28:42.243Z,280.60
2022-08-27T00:29:42.226Z,291.40
2022-08-27T00:30:42.231Z,287.90
2022-08-27T00:31:42.309Z,294.50
2022-08-27T00:32:42.198Z,302.10
2022-08-27T00:33:42.190Z,300.90
2022-08-27T00:34:42.172Z,294.90
2022-08-27T00:35:42.153Z,298.80
2022-08-27T00:36:42.194Z,279.80
2022-08-27T00:37:42.132Z,272.40
2022-08-27T00:38:42.124Z,269.00
2022-08-27T00:39:42.114Z,270.60
2022-08-27T00:40:42.113Z,275.30
2022-08-27T00:41:42.139Z,280.90
2022-08-27T00:42:42.075Z,283.40
2022-08-27T00:43:42.068Z,279.90
2022-08-27T00:44:42.050Z,277.20
2022-08-27T00:45:42.100Z,274.60
2022-08-27T00:46:42.082Z,278.20
2022-08-27T00:47:42.023Z,284.10
2022-08-27T00:48:42.040Z,280.20
2022-08-27T00:49:42.000Z,269.00
2022-08-27T00:50:41.995Z,260.30
2022-08-27T00:51:42.019Z,249.40
2022-08-27T00:52:41.974Z,239.10
2022-08-27T00:53:41.951Z,244.60
2022-08-27T00:54:41.955Z,252.40
2022-08-27T00:55:41.941Z,244.40
2022-08-27T00:56:41.978Z,255.30
2022-08-27T00:57:41.913Z,262.70
2022-08-27T00:58:41.904Z,256.00
2022-08-27T00:59:41.891Z,262.80
2022-08-27T01:00:41.947Z,278.60
2022-08-27T01:01:41.974Z,286.30
2022-08-27T01:02:41.865Z,289.30
2022-08-27T01:03:41.849Z,280.90
2022-08-27T01:04:41.844Z,275.70
2022-08-27T01:05:41.818Z,283.20
2022-08-27T01:06:41.858Z,288.90
2022-08-27T01:07:41.800Z,288.30
2022-08-27T01:08:41.809Z,290.40
2022-08-27T01:09:41.781Z,293.00
2022-08-27T01:10:41.769Z,303.20
2022-08-27T01:11:41.791Z,294.10
2022-08-27T01:12:41.750Z,286.10
2022-08-27T01:13:59.091Z,269.30
2022-08-27T01:14:42.718Z,255.90
2022-08-27T01:15:41.692Z,257.90
2022-08-27T01:16:41.781Z,262.70
2022-08-27T01:17:41.680Z,266.00
2022-08-27T01:18:41.678Z,261.90
2022-08-27T01:19:41.652Z,251.90
2022-08-27T01:20:41.661Z,248.30
2022-08-27T01:21:41.693Z,239.50
2022-08-27T01:22:41.641Z,242.90
2022-08-27T01:23:41.621Z,240.30
2022-08-27T01:24:41.611Z,228.80
2022-08-27T01:25:41.580Z,236.30
2022-08-27T01:26:41.635Z,228.70
2022-08-27T01:27:41.562Z,215.10
2022-08-27T01:28:41.570Z,222.40
2022-08-27T01:29:41.535Z,208.40
2022-08-27T01:30:41.533Z,204.00
2022-08-27T01:31:41.595Z,200.70
2022-08-27T01:32:41.514Z,205.30
2022-08-27T01:33:41.490Z,196.70
2022-08-27T01:34:41.515Z,205.60
2022-08-27T01:35:41.470Z,209.90
2022-08-27T01:36:41.508Z,218.90
2022-08-27T01:37:41.441Z,221.20
2022-08-27T01:38:41.442Z,218.00
2022-08-27T01:39:41.422Z,222.30
2022-08-27T01:40:41.418Z,236.60
2022-08-27T01:41:41.438Z,260.50
2022-08-27T01:42:41.398Z,266.50
2022-08-27T01:43:41.372Z,273.90
2022-08-27T01:44:41.366Z,274.70
2022-08-27T01:45:41.359Z,269.70
2022-08-27T01:46:41.436Z,252.00
2022-08-27T01:47:41.320Z,232.70
2022-08-27T01:48:41.327Z,233.50
2022-08-27T01:49:41.301Z,242.30
2022-08-27T01:50:41.290Z,229.20
2022-08-27T01:51:41.337Z,224.40
2022-08-27T01:52:41.273Z,238.40
2022-08-27T01:53:41.253Z,231.30
2022-08-27T01:54:41.259Z,219.50
2022-08-27T01:55:41.236Z,212.80
2022-08-27T01:56:42.270Z,200.70
2022-08-27T01:57:41.213Z,205.00
2022-08-27T01:58:41.217Z,205.00
2022-08-27T01:59:41.184Z,211.90
2022-08-27T02:00:41.240Z,218.20
2022-08-27T02:01:41.239Z,228.70
2022-08-27T02:02:41.163Z,243.40
2022-08-27T02:03:41.148Z,251.40
2022-08-27T02:04:41.138Z,259.20
2022-08-27T02:05:44.630Z,265.60
2022-08-27T02:06:41.173Z,272.90
2022-08-27T02:07:41.093Z,270.50
2022-08-27T02:08:41.081Z,259.80
2022-08-27T02:09:41.069Z,262.40
2022-08-27T02:10:41.099Z,269.40
2022-08-27T02:11:44.935Z,268.20
2022-08-27T02:12:41.044Z,259.60
2022-08-27T02:13:41.025Z,259.50
2022-08-27T02:14:41.014Z,257.20
2022-08-27T02:15:40.993Z,258.00
2022-08-27T02:16:41.291Z,246.80
2022-08-27T02:17:41.980Z,243.50
2022-08-27T02:18:41.675Z,243.20
2022-08-27T02:19:40.939Z,242.10
2022-08-27T02:20:40.949Z,227.30
2022-08-27T02:21:41.000Z,212.00
2022-08-27T02:22:40.920Z,206.50
2022-08-27T02:23:40.912Z,203.80
2022-08-27T02:24:40.907Z,184.10
2022-08-27T02:25:40.875Z,174.30
2022-08-27T02:26:40.925Z,172.70
2022-08-27T02:27:40.862Z,188.50
2022-08-27T02:28:40.847Z,186.00
2022-08-27T02:29:40.835Z,185.90
2022-08-27T02:30:40.822Z,183.60
2022-08-27T02:31:40.895Z,182.40
2022-08-27T02:32:40.806Z,186.10
2022-08-27T02:33:40.798Z,194.30
2022-08-27T02:34:40.770Z,188.00
2022-08-27T02:35:40.769Z,180.50
2022-08-27T02:36:40.800Z,170.10
2022-08-27T02:37:40.739Z,162.90
2022-08-27T02:38:40.734Z,154.00
2022-08-27T02:39:45.514Z,148.20
2022-08-27T02:40:41.707Z,159.20
2022-08-27T02:41:40.729Z,155.20
2022-08-27T02:42:40.692Z,152.60
2022-08-27T02:43:40.669Z,153.80
2022-08-27T02:44:40.656Z,144.40
2022-08-27T02:45:40.639Z,141.30
2022-08-27T02:46:40.740Z,153.00
2022-08-27T02:47:40.622Z,152.50
2022-08-27T02:48:40.606Z,154.10
2022-08-27T02:49:40.595Z,150.50
2022-08-27T02:50:40.586Z,150.00
2022-08-27T02:51:40.611Z,145.60
2022-08-27T02:52:40.570Z,145.20
2022-08-27T02:53:40.554Z,141.70
2022-08-27T02:54:40.549Z,144.70
2022-08-27T02:55:40.538Z,137.10
2022-08-27T02:56:40.566Z,137.20
2022-08-27T02:57:40.506Z,136.80
2022-08-27T02:58:40.500Z,140.70
2022-08-27T02:59:40.479Z,139.40
2022-08-27T03:00:40.484Z,138.90
2022-08-27T03:01:40.601Z,138.40
2022-08-27T03:02:40.508Z,139.00
2022-08-27T03:03:40.447Z,149.20
2022-08-27T03:04:40.434Z,148.20
2022-08-27T03:05:40.409Z,148.70
2022-08-27T03:06:40.460Z,145.80
2022-08-27T03:07:40.422Z,143.50
2022-08-27T03:08:52.650Z,143.90
2022-08-27T03:09:41.371Z,144.80
2022-08-27T03:10:40.354Z,151.70
2022-08-27T03:11:40.391Z,152.10
2022-08-27T03:12:40.357Z,155.20
2022-08-27T03:13:40.319Z,158.40
2022-08-27T03:14:40.310Z,153.30
2022-08-27T03:15:40.357Z,151.60
2022-08-27T03:16:40.290Z,151.20
2022-08-27T03:17:40.333Z,150.10
2022-08-27T03:18:40.278Z,150.70
2022-08-27T03:19:40.263Z,140.90
2022-08-27T03:20:40.236Z,133.60
2022-08-27T03:21:40.217Z,124.70
2022-08-27T03:22:40.276Z,125.70
2022-08-27T03:23:40.208Z,114.20
2022-08-27T03:24:40.203Z,114.10
2022-08-27T03:25:40.187Z,114.80
2022-08-27T03:26:40.176Z,113.50
2022-08-27T03:27:40.205Z,128.20
2022-08-27T03:28:40.149Z,136.60
2022-08-27T03:29:40.141Z,145.00
2022-08-27T03:30:40.134Z,148.10
2022-08-27T03:31:40.166Z,146.50
2022-08-27T03:32:40.162Z,160.10
2022-08-27T03:33:40.094Z,213.50
2022-08-27T03:34:40.087Z,266.50
2022-08-27T03:35:40.085Z,324.80
2022-08-27T03:36:40.055Z,346.90
2022-08-27T03:37:40.093Z,348.50
2022-08-27T03:38:40.044Z,342.80
2022-08-27T03:39:40.031Z,324.00
2022-08-27T03:40:40.028Z,315.40
2022-08-27T03:41:55.005Z,308.60
2022-08-27T03:42:41.038Z,307.70
2022-08-27T03:43:39.988Z,317.20
2022-08-27T03:44:39.988Z,324.40
2022-08-27T03:45:40.919Z,342.60
2022-08-27T03:46:40.996Z,338.40
2022-08-27T03:47:39.976Z,345.20
2022-08-27T03:48:39.962Z,346.20
2022-08-27T03:49:39.910Z,345.80
2022-08-27T03:50:39.904Z,347.60
2022-08-27T03:51:39.897Z,343.60
2022-08-27T03:52:39.919Z,362.40
2022-08-27T03:53:39.848Z,396.60
2022-08-27T03:54:39.848Z,378.40
2022-08-27T03:55:39.842Z,378.70
2022-08-27T03:56:39.837Z,370.20
2022-08-27T03:57:39.859Z,372.10
2022-08-27T03:58:39.814Z,363.20
2022-08-27T03:59:39.823Z,383.10
2022-08-27T04:00:39.793Z,375.40
2022-08-27T04:01:39.817Z,373.50
2022-08-27T04:02:39.846Z,363.10
2022-08-27T04:03:39.753Z,361.00
2022-08-27T04:04:39.736Z,358.10
2022-08-27T04:05:39.746Z,346.90
2022-08-27T04:06:39.722Z,351.20
2022-08-27T04:07:39.757Z,211.30
2022-08-27T04:08:39.692Z,84.40
2022-08-27T04:09:39.692Z,88.60
2022-08-27T04:10:39.682Z,80.80
2022-08-27T04:11:39.672Z,71.90
2022-08-27T04:12:39.682Z,74.10
2022-08-27T04:13:39.644Z,77.20
2022-08-27T04:14:39.628Z,84.80
2022-08-27T04:15:40.708Z,84.10
2022-08-27T04:16:39.596Z,92.50
2022-08-27T04:17:39.644Z,92.10
2022-08-27T04:18:39.583Z,91.30
2022-08-27T04:19:39.575Z,91.60
2022-08-27T04:20:39.562Z,87.30
2022-08-27T04:21:39.544Z,89.60
2022-08-27T04:22:39.574Z,101.20
2022-08-27T04:23:39.518Z,96.40
2022-08-27T04:24:39.491Z,88.70
2022-08-27T04:25:39.518Z,88.60
2022-08-27T04:26:39.485Z,88.20
2022-08-27T04:27:39.532Z,86.00
2022-08-27T04:28:39.465Z,85.40
2022-08-27T04:29:39.841Z,85.70
2022-08-27T04:30:39.431Z,81.50
2022-08-27T04:31:39.462Z,84.00
2022-08-27T04:32:39.463Z,90.90
2022-08-27T04:33:39.397Z,85.30
2022-08-27T04:34:39.425Z,81.90
2022-08-27T04:35:39.383Z,81.90
2022-08-27T04:36:39.364Z,84.00
2022-08-27T04:37:39.404Z,87.40
2022-08-27T04:38:39.354Z,90.00
2022-08-27T04:39:39.344Z,89.10
2022-08-27T04:40:39.335Z,90.80
2022-08-27T04:41:39.318Z,95.80
2022-08-27T04:42:39.346Z,98.90
2022-08-27T04:43:39.289Z,98.60
2022-08-27T04:44:39.284Z,99.70
2022-08-27T04:45:39.275Z,101.40
2022-08-27T04:46:39.331Z,105.50
2022-08-27T04:47:39.294Z,115.10
2022-08-27T04:48:39.242Z,151.60
2022-08-27T04:49:39.234Z,124.00
2022-08-27T04:50:39.226Z,113.40
2022-08-27T04:51:39.368Z,121.10
2022-08-27T04:52:40.319Z,123.80
2022-08-27T04:53:39.184Z,130.90
2022-08-27T04:54:39.174Z,134.00
2022-08-27T04:55:39.160Z,142.20
2022-08-27T04:56:39.150Z,146.30
2022-08-27T04:57:39.175Z,148.20
2022-08-27T04:58:39.106Z,148.70
2022-08-27T04:59:39.116Z,174.50
2022-08-27T05:00:39.100Z,175.20
2022-08-27T05:01:39.162Z,177.90
2022-08-27T05:02:39.143Z,179.20
2022-08-27T05:03:39.070Z,171.50
2022-08-27T05:04:39.059Z,153.80
2022-08-27T05:05:42.712Z,159.70
2022-08-27T05:06:39.039Z,162.10
2022-08-27T05:07:39.079Z,160.60
2022-08-27T05:08:39.014Z,165.80
2022-08-27T05:09:38.998Z,174.20
2022-08-27T05:10:38.992Z,175.80
2022-08-27T05:11:38.995Z,176.80
2022-08-27T05:12:39.026Z,183.70
2022-08-27T05:13:38.974Z,186.80
2022-08-27T05:14:38.945Z,189.20
2022-08-27T05:15:38.961Z,186.10
2022-08-27T05:16:38.915Z,188.10
2022-08-27T05:17:38.966Z,208.00
2022-08-27T05:18:43.111Z,202.80
2022-08-27T05:19:39.894Z,209.20
2022-08-27T05:20:38.889Z,198.00
2022-08-27T05:21:38.917Z,195.50
2022-08-27T05:22:38.896Z,194.00
2022-08-27T05:23:38.864Z,193.60
2022-08-27T05:24:38.843Z,185.80
2022-08-27T05:25:38.823Z,190.30
2022-08-27T05:26:38.808Z,187.10
2022-08-27T05:27:38.845Z,183.20
2022-08-27T05:28:38.784Z,174.20
2022-08-27T05:29:38.766Z,165.20
2022-08-27T05:30:38.789Z,163.10
2022-08-27T05:31:38.816Z,162.30
2022-08-27T05:32:38.802Z,161.60
2022-08-27T05:33:38.749Z,160.50
2022-08-27T05:34:38.713Z,157.00
2022-08-27T05:35:38.717Z,158.30
2022-08-27T05:36:38.714Z,153.10
2022-08-27T05:37:39.735Z,151.10
2022-08-27T05:38:38.673Z,148.20
2022-08-27T05:39:38.683Z,149.60
2022-08-27T05:40:38.663Z,153.20
2022-08-27T05:41:38.652Z,158.00
2022-08-27T05:42:38.624Z,164.80
2022-08-27T05:43:38.666Z,170.40
2022-08-27T05:44:41.423Z,173.60
2022-08-27T05:45:38.624Z,176.70
2022-08-27T05:46:38.622Z,176.90
2022-08-27T05:47:44.427Z,189.30
2022-08-27T05:48:39.613Z,196.50
2022-08-27T05:49:38.551Z,192.30
2022-08-27T05:50:38.535Z,193.00
2022-08-27T05:51:38.548Z,191.50
2022-08-27T05:52:38.515Z,185.90
2022-08-27T05:53:38.555Z,180.40
2022-08-27T05:54:38.501Z,183.60
2022-08-27T05:55:38.489Z,159.30
2022-08-27T05:56:38.480Z,149.10
2022-08-27T05:57:38.463Z,158.40
2022-08-27T05:58:38.490Z,155.00
2022-08-27T05:59:38.435Z,157.20
2022-08-27T06:00:38.414Z,153.90
2022-08-27T06:01:38.411Z,150.40
2022-08-27T06:02:38.447Z,145.90
2022-08-27T06:03:38.449Z,143.90
2022-08-27T06:04:38.385Z,140.10
2022-08-27T06:05:38.426Z,130.10
2022-08-27T06:06:38.364Z,123.50
2022-08-27T06:07:38.344Z,116.70
2022-08-27T06:08:38.405Z,113.00
2022-08-27T06:09:38.341Z,113.90
2022-08-27T06:10:38.312Z,116.90
2022-08-27T06:11:38.315Z,124.30
2022-08-27T06:12:38.283Z,121.40
2022-08-27T06:13:38.530Z,120.60
2022-08-27T06:14:38.267Z,114.70
2022-08-27T06:15:38.349Z,115.60
2022-08-27T06:16:38.260Z,117.60
2022-08-27T06:17:38.242Z,120.80
2022-08-27T06:18:38.271Z,114.20
2022-08-27T06:19:38.219Z,109.30
2022-08-27T06:20:38.204Z,111.60
2022-08-27T06:21:38.203Z,118.00
2022-08-27T06:22:38.179Z,126.30
2022-08-27T06:23:38.271Z,133.30
2022-08-27T06:24:38.158Z,144.80
2022-08-27T06:25:38.156Z,152.10
2022-08-27T06:26:38.139Z,156.30
2022-08-27T06:27:38.125Z,156.10
2022-08-27T06:28:38.155Z,194.90
2022-08-27T06:29:38.123Z,129.90
2022-08-27T06:30:38.172Z,155.30
2022-08-27T06:31:38.833Z,121.10
2022-08-27T06:32:38.069Z,126.60
2022-08-27T06:33:38.103Z,128.90
2022-08-27T06:34:38.049Z,128.30
2022-08-27T06:35:38.041Z,169.30
2022-08-27T06:36:38.035Z,140.30
2022-08-27T06:37:38.035Z,144.50
2022-08-27T06:38:38.046Z,134.30
2022-08-27T06:39:37.999Z,138.30
2022-08-27T06:40:38.032Z,132.80
2022-08-27T06:41:37.971Z,134.30
2022-08-27T06:42:37.954Z,123.60
2022-08-27T06:43:37.998Z,115.20
2022-08-27T06:44:37.933Z,125.20
2022-08-27T06:45:37.943Z,131.30
2022-08-27T06:46:37.970Z,141.10
2022-08-27T06:47:37.910Z,143.50
2022-08-27T06:48:37.939Z,134.20
2022-08-27T06:49:37.877Z,130.00
2022-08-27T06:50:37.878Z,120.30
2022-08-27T06:51:37.855Z,115.40
2022-08-27T06:52:37.843Z,115.20
2022-08-27T06:53:37.905Z,105.70
2022-08-27T06:54:37.832Z,94.30
2022-08-27T06:55:37.847Z,85.10
2022-08-27T06:56:37.794Z,68.40
2022-08-27T06:57:37.794Z,52.60
2022-08-27T06:58:37.815Z,51.50
2022-08-27T06:59:38.693Z,58.30
2022-08-27T07:00:37.752Z,55.10
2022-08-27T07:01:37.811Z,52.20
2022-08-27T07:02:37.763Z,62.60
2022-08-27T07:03:37.763Z,73.40
2022-08-27T07:04:37.708Z,93.90
2022-08-27T07:05:37.699Z,111.10
2022-08-27T07:06:37.685Z,123.80
2022-08-27T07:07:43.185Z,124.00
2022-08-27T07:08:38.714Z,125.80
2022-08-27T07:09:37.663Z,121.10
2022-08-27T07:10:37.652Z,114.90
2022-08-27T07:11:37.639Z,96.90
2022-08-27T07:12:37.614Z,84.20
2022-08-27T07:13:37.655Z,78.40
2022-08-27T07:14:38.399Z,70.30
2022-08-27T07:15:37.634Z,73.00
2022-08-27T07:16:37.590Z,73.70
2022-08-27T07:17:37.588Z,68.20
2022-08-27T07:18:37.606Z,65.70
2022-08-27T07:19:37.546Z,69.50
2022-08-27T07:20:37.533Z,66.10
2022-08-27T07:21:37.540Z,71.00
2022-08-27T07:22:37.507Z,63.70
2022-08-27T07:23:37.535Z,57.40
2022-08-27T07:24:37.492Z,55.90
2022-08-27T07:25:37.485Z,53.80
2022-08-27T07:26:37.470Z,50.30
2022-08-27T07:27:37.469Z,49.40
2022-08-27T07:28:37.494Z,52.10
2022-08-27T07:29:37.460Z,54.10
2022-08-27T07:30:37.471Z,52.50
2022-08-27T07:31:37.431Z,48.60
2022-08-27T07:32:37.405Z,49.40
2022-08-27T07:33:37.443Z,50.50
2022-08-27T07:34:37.364Z,49.40
2022-08-27T07:35:37.360Z,47.70
2022-08-27T07:36:37.359Z,43.30
2022-08-27T07:37:37.355Z,44.40
2022-08-27T07:38:37.384Z,45.10
2022-08-27T07:39:37.321Z,47.80
2022-08-27T07:40:37.395Z,49.30
2022-08-27T07:41:37.353Z,46.40
2022-08-27T07:42:37.292Z,39.30
2022-08-27T07:43:37.283Z,34.00
2022-08-27T07:44:37.319Z,30.80
2022-08-27T07:45:37.340Z,29.80
2022-08-27T07:46:40.095Z,26.50
2022-08-27T07:47:37.231Z,25.00
2022-08-27T07:48:37.918Z,24.90
2022-08-27T07:49:37.250Z,23.90
2022-08-27T07:50:37.194Z,23.00
2022-08-27T07:51:37.204Z,20.80
2022-08-27T07:52:37.175Z,21.90
2022-08-27T07:53:37.174Z,22.80
2022-08-27T07:54:37.192Z,23.00
2022-08-27T07:55:37.164Z,23.90
2022-08-27T07:56:37.122Z,31.80
2022-08-27T07:57:37.119Z,40.20
2022-08-27T07:58:37.124Z,48.20
2022-08-27T07:59:37.139Z,50.00
2022-08-27T08:00:37.103Z,46.30
2022-08-27T08:01:37.107Z,45.20
2022-08-27T08:02:37.149Z,46.90
2022-08-27T08:03:37.053Z,44.90
2022-08-27T08:04:37.074Z,49.50
2022-08-27T08:05:37.028Z,51.30
2022-08-27T08:06:37.010Z,49.70
2022-08-27T08:07:36.996Z,48.90
2022-08-27T08:08:36.996Z,50.40
2022-08-27T08:09:37.028Z,47.80
2022-08-27T08:10:36.971Z,47.00
2022-08-27T08:11:36.982Z,50.10
2022-08-27T08:12:36.958Z,56.80
2022-08-27T08:13:36.936Z,54.30
2022-08-27T08:14:36.981Z,50.10
2022-08-27T08:15:36.922Z,48.20
2022-08-27T08:16:36.942Z,50.30
2022-08-27T08:17:36.903Z,49.00
2022-08-27T08:18:36.887Z,49.50
2022-08-27T08:19:36.949Z,46.20
2022-08-27T08:20:56.962Z,47.00
2022-08-27T08:21:37.849Z,45.70
2022-08-27T08:22:36.839Z,38.70
2022-08-27T08:23:36.839Z,37.00
2022-08-27T08:24:36.856Z,33.30
2022-08-27T08:25:38.558Z,30.90
2022-08-27T08:26:36.799Z,33.30
2022-08-27T08:27:36.824Z,35.50
2022-08-27T08:28:36.786Z,35.00
2022-08-27T08:29:36.807Z,34.70
2022-08-27T08:30:36.793Z,38.60
2022-08-27T08:31:36.747Z,40.60
2022-08-27T08:32:36.735Z,35.70
2022-08-27T08:33:36.723Z,30.80
2022-08-27T08:34:36.744Z,28.10
2022-08-27T08:35:40.692Z,26.20
2022-08-27T08:36:36.681Z,25.50
2022-08-27T08:37:36.654Z,29.40
2022-08-27T08:38:36.654Z,22.10
2022-08-27T08:39:36.688Z,19.30
2022-08-27T08:40:36.683Z,22.10
2022-08-27T08:41:36.619Z,26.40
2022-08-27T08:42:36.613Z,30.80
2022-08-27T08:43:36.613Z,18.60
2022-08-27T08:44:36.647Z,17.10
2022-08-27T08:45:36.652Z,17.20
2022-08-27T08:46:36.585Z,17.50
2022-08-27T08:47:36.569Z,19.80
2022-08-27T08:48:36.560Z,18.10
2022-08-27T08:49:36.580Z,19.30
2022-08-27T08:50:36.536Z,18.60
2022-08-27T08:51:36.517Z,19.10
2022-08-27T08:52:36.499Z,19.30
2022-08-27T08:53:36.493Z,20.10
2022-08-27T08:54:36.534Z,19.00
2022-08-27T08:55:36.473Z,16.20
2022-08-27T08:56:36.472Z,15.20
2022-08-27T08:57:36.452Z,14.90
2022-08-27T08:58:36.439Z,14.50
2022-08-27T08:59:36.465Z,14.10
2022-08-27T09:00:36.428Z,14.10
2022-08-27T09:01:36.433Z,14.50
2022-08-27T09:02:36.395Z,14.10
2022-08-27T09:03:36.469Z,15.40
2022-08-27T09:04:36.416Z,17.30
2022-08-27T09:05:36.359Z,18.00
2022-08-27T09:06:36.352Z,19.10
2022-08-27T09:07:36.838Z,19.00
2022-08-27T09:08:41.114Z,19.70
2022-08-27T09:09:37.349Z,22.80
2022-08-27T09:10:36.303Z,39.40
2022-08-27T09:11:36.289Z,52.70
2022-08-27T09:12:36.289Z,42.10
2022-08-27T09:13:36.319Z,33.90
2022-08-27T09:14:36.297Z,34.70
2022-08-27T09:15:36.269Z,36.80
2022-08-27T09:16:36.288Z,33.90
2022-08-27T09:17:36.235Z,29.10
2022-08-27T09:18:36.215Z,29.10
2022-08-27T09:19:36.250Z,27.40
2022-08-27T09:20:36.204Z,25.60
2022-08-27T09:21:36.179Z,25.30
2022-08-27T09:22:36.177Z,24.40
2022-08-27T09:23:36.154Z,26.10
2022-08-27T09:24:36.203Z,27.20
2022-08-27T09:25:36.157Z,31.20
2022-08-27T09:26:37.261Z,30.40
2022-08-27T09:27:36.110Z,38.90
2022-08-27T09:28:36.102Z,38.40
2022-08-27T09:29:36.134Z,34.30
2022-08-27T09:30:36.137Z,33.00
2022-08-27T09:31:36.066Z,34.70
2022-08-27T09:32:36.069Z,35.30
2022-08-27T09:33:43.858Z,35.90
2022-08-27T09:34:37.089Z,39.40
2022-08-27T09:35:36.030Z,46.10
2022-08-27T09:36:36.019Z,48.20
2022-08-27T09:37:36.023Z,54.10
2022-08-27T09:38:35.990Z,47.60
2022-08-27T09:39:36.019Z,40.50
2022-08-27T09:40:36.018Z,41.00
2022-08-27T09:41:35.952Z,44.00
2022-08-27T09:42:35.944Z,43.60
2022-08-27T09:43:35.945Z,42.70
2022-08-27T09:44:36.029Z,45.50
2022-08-27T09:45:36.007Z,45.30
2022-08-27T09:46:35.919Z,43.20
2022-08-27T09:47:35.890Z,47.50
2022-08-27T09:48:35.884Z,45.70
2022-08-27T09:49:35.929Z,46.40
2022-08-27T09:50:37.097Z,47.00
2022-08-27T09:51:35.857Z,45.20
2022-08-27T09:52:37.973Z,49.10
2022-08-27T09:53:35.822Z,53.60
2022-08-27T09:54:35.869Z,54.40
2022-08-27T09:55:35.814Z,54.60
2022-08-27T09:56:35.815Z,47.40
2022-08-27T09:57:35.800Z,40.20
2022-08-27T09:58:35.825Z,33.80
2022-08-27T09:59:35.810Z,28.90
2022-08-27T10:00:35.753Z,30.10
2022-08-27T10:01:35.816Z,31.30
2022-08-27T10:02:35.739Z,32.50
2022-08-27T10:03:35.785Z,43.00
2022-08-27T10:04:50.061Z,48.50
2022-08-27T10:05:36.705Z,52.00
2022-08-27T10:06:35.701Z,53.10
2022-08-27T10:07:35.687Z,53.40
2022-08-27T10:08:35.663Z,46.70
2022-08-27T10:09:35.688Z,42.30
2022-08-27T10:10:35.642Z,36.90
2022-08-27T10:11:35.634Z,36.40
2022-08-27T10:12:35.618Z,37.50
2022-08-27T10:13:35.609Z,39.10
2022-08-27T10:14:35.650Z,41.30
2022-08-27T10:15:41.873Z,42.50
2022-08-27T10:16:36.635Z,44.30
2022-08-27T10:17:35.571Z,51.00
2022-08-27T10:18:35.556Z,49.20
2022-08-27T10:19:35.601Z,49.00
2022-08-27T10:20:35.545Z,40.80
2022-08-27T10:21:35.518Z,37.00
2022-08-27T10:22:35.524Z,34.20
2022-08-27T10:23:35.506Z,34.30
2022-08-27T10:24:35.539Z,47.20
2022-08-27T10:25:35.483Z,53.50
2022-08-27T10:26:35.464Z,58.50
2022-08-27T10:27:35.455Z,62.00
2022-08-27T10:28:35.459Z,54.60
2022-08-27T10:29:35.474Z,53.00
2022-08-27T10:30:35.433Z,50.00
2022-08-27T10:31:35.507Z,45.50
2022-08-27T10:32:35.422Z,41.90
2022-08-27T10:33:35.428Z,39.50
2022-08-27T10:34:35.451Z,39.40
2022-08-27T10:35:35.395Z,35.10
2022-08-27T10:36:36.366Z,35.30
2022-08-27T10:37:40.326Z,41.00
2022-08-27T10:38:39.049Z,45.90
2022-08-27T10:39:36.369Z,47.50
2022-08-27T10:40:35.391Z,47.30
2022-08-27T10:41:35.284Z,45.70
2022-08-27T10:42:35.281Z,44.20
2022-08-27T10:43:35.297Z,41.60
2022-08-27T10:44:35.341Z,38.90
2022-08-27T10:45:35.294Z,31.90
2022-08-27T10:46:35.316Z,26.80
2022-08-27T10:47:35.261Z,22.60
2022-08-27T10:48:35.239Z,24.30
2022-08-27T10:49:35.291Z,31.00
2022-08-27T10:50:35.210Z,29.40
2022-08-27T10:51:35.195Z,30.70
2022-08-27T10:52:35.203Z,31.70
2022-08-27T10:53:35.175Z,34.90
2022-08-27T10:54:35.213Z,34.10
2022-08-27T10:55:35.146Z,27.00
2022-08-27T10:56:35.152Z,22.50
2022-08-27T10:57:55.190Z,20.90
2022-08-27T10:58:36.112Z,25.00
2022-08-27T10:59:35.158Z,30.10
2022-08-27T11:00:35.173Z,34.00
2022-08-27T11:01:35.090Z,34.60
2022-08-27T11:02:35.121Z,25.10
2022-08-27T11:03:35.069Z,21.90
2022-08-27T11:04:35.056Z,21.70
2022-08-27T11:05:35.083Z,20.50
2022-08-27T11:06:35.025Z,18.10
2022-08-27T11:07:35.009Z,19.10
2022-08-27T11:08:35.036Z,20.70
2022-08-27T11:09:34.985Z,19.60
2022-08-27T11:10:35.016Z,25.20
2022-08-27T11:12:12.761Z,43.60
2022-08-27T11:12:35.954Z,46.10
2022-08-27T11:13:34.959Z,50.10
2022-08-27T11:14:34.967Z,54.30
2022-08-27T11:15:34.987Z,57.00
2022-08-27T11:16:34.963Z,56.90
2022-08-27T11:17:34.933Z,58.60
2022-08-27T11:18:34.896Z,58.90
2022-08-27T11:19:34.871Z,55.70
2022-08-27T11:20:34.953Z,58.60
2022-08-27T11:21:34.871Z,56.00
2022-08-27T11:22:34.874Z,65.50
2022-08-27T11:23:34.858Z,72.20
2022-08-27T11:24:35.308Z,89.30
2022-08-27T11:25:34.872Z,84.00
2022-08-27T11:26:34.820Z,68.30
2022-08-27T11:27:34.796Z,62.00
2022-08-27T11:28:34.798Z,50.20
2022-08-27T11:29:34.779Z,39.50
2022-08-27T11:30:34.831Z,36.50
2022-08-27T11:31:34.814Z,36.70
2022-08-27T11:32:34.745Z,34.80
2022-08-27T11:33:34.725Z,35.50
2022-08-27T11:34:34.746Z,34.40
2022-08-27T11:35:34.849Z,34.40
2022-08-27T11:36:34.735Z,33.70
2022-08-27T11:37:34.687Z,30.40
2022-08-27T11:38:34.695Z,28.60
2022-08-27T11:39:34.692Z,27.20
2022-08-27T11:40:34.724Z,29.20
2022-08-27T11:41:44.706Z,28.40
2022-08-27T11:42:35.613Z,24.10
2022-08-27T11:43:34.642Z,22.40
2022-08-27T11:44:34.666Z,21.50
2022-08-27T11:45:34.613Z,24.50
2022-08-27T11:46:34.652Z,24.40
2022-08-27T11:47:34.588Z,20.80
2022-08-27T11:48:34.568Z,27.30
2022-08-27T11:49:34.621Z,29.40
2022-08-27T11:50:34.558Z,27.40
2022-08-27T11:51:34.532Z,27.80
2022-08-27T11:52:34.539Z,27.70
2022-08-27T11:53:34.514Z,26.40
2022-08-27T11:54:35.550Z,22.30
2022-08-27T11:55:34.494Z,20.50
2022-08-27T11:56:34.487Z,20.30
2022-08-27T11:57:34.478Z,21.90
2022-08-27T11:58:34.450Z,28.30
2022-08-27T11:59:35.479Z,35.00
2022-08-27T12:00:34.453Z,31.60
2022-08-27T12:01:34.429Z,28.30
2022-08-27T12:02:34.428Z,24.80
2022-08-27T12:03:35.473Z,22.00
2022-08-27T12:04:34.468Z,21.30
2022-08-27T12:05:34.434Z,22.50
2022-08-27T12:06:34.362Z,26.30
2022-08-27T12:07:34.374Z,41.70
2022-08-27T12:08:34.339Z,22.00
2022-08-27T12:09:34.335Z,19.20
2022-08-27T12:10:34.379Z,15.50
2022-08-27T12:11:34.300Z,12.20
2022-08-27T12:12:34.327Z,14.10
2022-08-27T12:13:34.319Z,16.30
2022-08-27T12:14:34.290Z,16.00
2022-08-27T12:15:34.721Z,18.80
2022-08-27T12:16:34.384Z,19.20
2022-08-27T12:17:34.242Z,17.40
2022-08-27T12:18:34.266Z,19.10
2022-08-27T12:19:34.240Z,15.30
2022-08-27T12:20:34.274Z,14.90
2022-08-27T12:21:34.220Z,16.90
2022-08-27T12:22:39.068Z,21.20
2022-08-27T12:23:35.201Z,25.00
2022-08-27T12:24:34.184Z,27.90
2022-08-27T12:25:34.226Z,29.50
2022-08-27T12:26:34.158Z,30.10
2022-08-27T12:27:34.159Z,28.80
2022-08-27T12:28:34.139Z,24.00
2022-08-27T12:29:34.134Z,21.70
2022-08-27T12:30:34.171Z,23.80
2022-08-27T12:31:34.148Z,27.80
2022-08-27T12:32:34.106Z,26.30
2022-08-27T12:33:34.071Z,25.70
2022-08-27T12:34:34.071Z,20.20
2022-08-27T12:35:34.110Z,16.40
2022-08-27T12:36:34.064Z,11.40
2022-08-27T12:37:34.036Z,11.80
2022-08-27T12:38:34.001Z,11.30
2022-08-27T12:39:33.991Z,10.90
2022-08-27T12:40:34.092Z,12.80